createdAt,value
2023-02-12T00:02:16.442Z,20.17
2023-02-12T00:04:45.282Z,17.80
2023-02-12T00:07:13.877Z,19.47
2023-02-12T00:09:42.805Z,15.00
2023-02-12T00:12:11.446Z,14.70
2023-02-12T00:14:43.024Z,17.53
2023-02-12T00:17:11.645Z,17.03
2023-02-12T00:19:40.324Z,15.47
2023-02-12T00:22:08.987Z,15.97
2023-02-12T00:24:37.712Z,15.47
2023-02-12T00:27:06.356Z,17.97
2023-02-12T00:29:35.091Z,16.97
2023-02-12T00:32:05.263Z,16.67
2023-02-12T00:34:34.087Z,14.83
2023-02-12T00:37:02.924Z,13.80
2023-02-12T00:39:31.507Z,18.57
2023-02-12T00:42:01.818Z,18.60
2023-02-12T00:44:30.360Z,15.63
2023-02-12T00:47:04.900Z,15.60
2023-02-12T00:49:35.741Z,16.10
2023-02-12T00:52:06.187Z,15.87
2023-02-12T00:54:34.863Z,17.20
2023-02-12T00:57:03.587Z,18.73
2023-02-12T00:59:32.597Z,15.23
2023-02-12T01:02:01.298Z,14.70
2023-02-12T01:04:29.940Z,17.97
2023-02-12T01:06:58.655Z,16.40
2023-02-12T01:09:27.471Z,17.33
2023-02-12T01:11:56.180Z,17.43
2023-02-12T01:14:24.876Z,19.57
2023-02-12T01:16:53.489Z,18.37
2023-02-12T01:19:22.145Z,23.80
2023-02-12T01:21:50.855Z,18.20
2023-02-12T01:24:19.532Z,18.10
2023-02-12T01:26:48.094Z,20.77
2023-02-12T01:29:16.771Z,22.83
2023-02-12T01:31:45.643Z,21.70
2023-02-12T01:34:14.609Z,17.20
2023-02-12T01:36:43.365Z,21.60
2023-02-12T01:39:12.906Z,20.37
2023-02-12T01:41:44.525Z,20.83
2023-02-12T01:44:21.728Z,19.67
2023-02-12T01:46:53.365Z,21.97
2023-02-12T01:49:41.929Z,19.37
2023-02-12T01:52:28.442Z,21.03
2023-02-12T01:55:00.101Z,20.40
2023-02-12T01:57:31.793Z,21.43
2023-02-12T02:00:03.625Z,19.57
2023-02-12T02:02:33.462Z,20.07
2023-02-12T02:05:05.426Z,19.27
2023-02-12T02:07:34.698Z,21.77
2023-02-12T02:10:04.050Z,20.57
2023-02-12T02:12:50.713Z,24.23
2023-02-12T02:15:19.423Z,23.03
2023-02-12T02:17:53.852Z,23.73
2023-02-12T02:20:40.693Z,21.80
2023-02-12T02:23:48.160Z,27.17
2023-02-12T02:26:25.596Z,22.17
2023-02-12T02:29:18.520Z,19.40
2023-02-12T02:31:50.180Z,24.00
2023-02-12T02:34:30.862Z,26.60
2023-02-12T02:37:08.411Z,27.37
2023-02-12T02:39:42.977Z,28.27
2023-02-12T02:42:14.326Z,26.47
2023-02-12T02:44:54.881Z,25.77
2023-02-12T02:47:26.607Z,27.63
2023-02-12T02:50:01.182Z,32.10
2023-02-12T02:52:44.834Z,24.87
2023-02-12T02:55:16.202Z,26.53
2023-02-12T02:57:50.841Z,27.17
2023-02-12T03:00:34.329Z,27.53
2023-02-12T03:03:15.724Z,27.33
2023-02-12T03:05:47.324Z,24.73
2023-02-12T03:08:27.731Z,25.43
2023-02-12T03:10:59.269Z,25.20
2023-02-12T03:13:36.539Z,27.60
2023-02-12T03:16:26.442Z,23.97
2023-02-12T03:18:58.035Z,26.23
2023-02-12T03:21:32.295Z,27.67
2023-02-12T03:24:04.206Z,26.47
2023-02-12T03:26:48.070Z,25.20
2023-02-12T03:29:16.906Z,27.13
2023-02-12T03:31:51.157Z,26.53
2023-02-12T03:34:37.759Z,25.87
2023-02-12T03:37:17.896Z,27.10
2023-02-12T03:40:04.971Z,29.10
2023-02-12T03:42:39.624Z,24.60
2023-02-12T03:45:26.735Z,28.93
2023-02-12T03:48:22.153Z,27.17
2023-02-12T03:50:59.938Z,28.10
2023-02-12T03:53:30.180Z,27.00
2023-02-12T03:56:10.729Z,26.20
2023-02-12T03:58:41.990Z,27.50
2023-02-12T04:01:11.852Z,26.87
2023-02-12T04:03:41.749Z,24.67
2023-02-12T04:06:25.959Z,29.87
2023-02-12T04:08:57.454Z,28.07
2023-02-12T04:11:51.366Z,23.67
2023-02-12T04:14:31.897Z,25.40
2023-02-12T04:17:21.150Z,30.60
2023-02-12T04:20:14.397Z,28.80
2023-02-12T04:23:02.772Z,26.57
2023-02-12T04:25:55.927Z,30.37
2023-02-12T04:28:36.243Z,25.13
2023-02-12T04:31:22.900Z,27.87
2023-02-12T04:34:06.814Z,28.60
2023-02-12T04:36:41.185Z,24.40
2023-02-12T04:39:12.914Z,30.40
2023-02-12T04:41:41.994Z,27.03
2023-02-12T04:44:23.179Z,28.90
2023-02-12T04:46:52.650Z,30.90
2023-02-12T04:49:22.986Z,26.53
2023-02-12T04:51:52.461Z,27.17
2023-02-12T04:54:23.246Z,32.77
2023-02-12T04:56:52.180Z,30.10
2023-02-12T04:59:20.901Z,23.30
2023-02-12T05:01:49.760Z,23.40
2023-02-12T05:04:20.050Z,24.93
2023-02-12T05:06:48.785Z,24.03
2023-02-12T05:09:20.148Z,28.67
2023-02-12T05:11:49.038Z,27.40
2023-02-12T05:14:17.832Z,29.03
2023-02-12T05:16:46.643Z,30.37
2023-02-12T05:19:15.312Z,26.53
2023-02-12T05:21:44.182Z,26.63
2023-02-12T05:24:12.949Z,25.70
2023-02-12T05:26:41.603Z,18.60
2023-02-12T05:29:10.433Z,25.50
2023-02-12T05:31:39.216Z,24.30
2023-02-12T05:34:10.234Z,23.63
2023-02-12T05:36:39.467Z,23.57
2023-02-12T05:39:09.208Z,22.80
2023-02-12T05:41:37.971Z,22.73
2023-02-12T05:44:07.663Z,24.83
2023-02-12T05:46:36.306Z,26.40
2023-02-12T05:49:05.131Z,26.43
2023-02-12T05:51:34.403Z,24.70
2023-02-12T05:54:06.003Z,20.43
2023-02-12T05:56:40.606Z,25.43
2023-02-12T05:59:11.534Z,25.07
2023-02-12T06:01:42.654Z,24.00
2023-02-12T06:04:16.963Z,27.47
2023-02-12T06:06:45.962Z,25.80
2023-02-12T06:09:15.523Z,26.50
2023-02-12T06:11:44.450Z,29.43
2023-02-12T06:14:15.994Z,28.90
2023-02-12T06:16:47.512Z,28.50
2023-02-12T06:19:16.415Z,26.20
2023-02-12T06:21:45.458Z,23.27
2023-02-12T06:24:15.653Z,19.40
2023-02-12T06:26:44.434Z,24.40
2023-02-12T06:29:13.428Z,25.23
2023-02-12T06:31:52.269Z,27.67
2023-02-12T06:34:21.122Z,21.43
2023-02-12T06:36:49.881Z,26.57
2023-02-12T06:39:19.943Z,21.63
2023-02-12T06:41:49.128Z,25.50
2023-02-12T06:44:19.763Z,26.13
2023-02-12T06:46:48.592Z,27.67
2023-02-12T06:49:17.383Z,33.27
2023-02-12T06:51:48.503Z,28.63
2023-02-12T06:54:18.369Z,22.87
2023-02-12T06:56:47.523Z,29.50
2023-02-12T06:59:18.540Z,24.43
2023-02-12T07:01:47.401Z,29.03
2023-02-12T07:04:17.665Z,27.17
2023-02-12T07:06:46.965Z,25.73
2023-02-12T07:09:15.954Z,23.70
2023-02-12T07:11:46.382Z,26.10
2023-02-12T07:14:16.513Z,25.93
2023-02-12T07:16:48.090Z,25.77
2023-02-12T07:19:18.431Z,25.90
2023-02-12T07:21:47.285Z,24.07
2023-02-12T07:24:18.631Z,24.17
2023-02-12T07:26:47.642Z,22.70
2023-02-12T07:29:17.260Z,26.10
2023-02-12T07:31:46.231Z,25.57
2023-02-12T07:34:16.640Z,26.90
2023-02-12T07:36:45.420Z,25.40
2023-02-12T07:39:17.221Z,27.23
2023-02-12T07:41:45.940Z,26.20
2023-02-12T07:44:16.265Z,27.37
2023-02-12T07:46:48.684Z,26.40
2023-02-12T07:49:20.222Z,28.47
2023-02-12T07:51:50.229Z,28.47
2023-02-12T07:54:20.526Z,27.40
2023-02-12T07:56:49.229Z,29.33
2023-02-12T07:59:19.551Z,31.53
2023-02-12T08:01:50.639Z,25.37
2023-02-12T08:04:22.305Z,28.80
2023-02-12T08:06:54.196Z,29.37
2023-02-12T08:09:33.706Z,31.60
2023-02-12T08:12:02.593Z,29.13
2023-02-12T08:14:41.577Z,37.47
2023-02-12T08:17:10.454Z,28.33
2023-02-12T08:25:40.266Z,27.53
2023-02-12T08:28:14.376Z,31.97
2023-02-12T08:30:45.255Z,28.23
2023-02-12T08:33:18.192Z,30.80
2023-02-12T08:38:54.723Z,30.13
2023-02-12T08:41:29.029Z,33.80
2023-02-12T08:44:00.747Z,27.10
2023-02-12T08:46:32.635Z,29.80
2023-02-12T08:49:13.387Z,32.27
2023-02-12T08:51:49.212Z,29.60
2023-02-12T08:54:34.401Z,29.77
2023-02-12T08:57:04.413Z,28.67
2023-02-12T08:59:38.270Z,31.47
2023-02-12T09:02:14.806Z,30.13
2023-02-12T09:04:52.978Z,33.83
2023-02-12T09:07:32.123Z,34.23
2023-02-12T09:10:18.031Z,36.87
2023-02-12T09:12:49.697Z,32.57
2023-02-12T09:15:27.502Z,39.17
2023-02-12T09:17:53.693Z,34.57
2023-02-12T09:20:24.055Z,36.23
2023-02-12T09:22:54.334Z,38.47
2023-02-12T09:25:23.251Z,38.60
2023-02-12T09:27:54.399Z,35.90
2023-02-12T09:36:52.902Z,40.70
2023-02-12T09:39:21.854Z,38.27
2023-02-12T09:45:31.143Z,37.37
2023-02-12T09:51:25.212Z,42.40
2023-02-12T10:18:28.711Z,38.03
2023-02-12T10:49:16.903Z,45.30
2023-02-12T10:52:53.056Z,46.43
2023-02-12T10:55:42.753Z,40.03
2023-02-12T10:58:31.354Z,40.70
2023-02-12T11:04:15.949Z,42.40
2023-02-12T11:07:42.238Z,42.93
2023-02-12T11:10:24.876Z,47.47
2023-02-12T11:13:12.324Z,43.00
2023-02-12T11:15:52.705Z,38.10
2023-02-12T11:47:45.935Z,40.70
2023-02-12T11:50:46.317Z,219.23
2023-02-12T11:59:42.476Z,38.20
2023-02-12T12:19:55.954Z,40.43
2023-02-12T12:22:55.335Z,48.53
2023-02-12T12:25:58.629Z,35.60
2023-02-12T12:28:30.823Z,33.53
2023-02-12T12:31:02.942Z,34.83
2023-02-12T12:33:34.700Z,37.43
2023-02-12T12:36:29.087Z,37.93
2023-02-12T12:39:30.835Z,42.00
2023-02-12T12:42:28.397Z,33.30
2023-02-12T12:45:01.586Z,36.17
2023-02-12T12:51:11.640Z,38.13
2023-02-12T12:53:49.764Z,43.43
2023-02-12T12:56:30.369Z,42.53
2023-02-12T13:02:48.998Z,44.30
2023-02-12T13:05:52.101Z,37.57
2023-02-12T13:08:23.854Z,37.67
2023-02-12T13:11:10.597Z,37.90
2023-02-12T13:13:46.701Z,44.00
2023-02-12T13:43:11.357Z,38.13
2023-02-12T13:46:28.677Z,33.57
2023-02-12T13:49:02.927Z,39.23
2023-02-12T13:51:43.568Z,41.40
2023-02-12T13:54:32.454Z,42.77
2023-02-12T13:57:04.502Z,40.20
2023-02-12T13:59:44.803Z,40.87
2023-02-12T14:02:39.424Z,41.13
2023-02-12T14:05:27.319Z,45.37
2023-02-12T14:08:13.075Z,49.00
2023-02-12T14:10:50.358Z,41.57
2023-02-12T14:13:28.949Z,49.50
2023-02-12T14:16:05.988Z,46.37
2023-02-12T14:21:44.027Z,42.10
2023-02-12T14:24:39.297Z,43.57
2023-02-12T14:34:16.732Z,50.83
2023-02-12T14:47:22.907Z,46.27
2023-02-12T14:56:46.194Z,55.03
2023-02-12T14:59:22.373Z,41.43
2023-02-12T15:18:30.388Z,49.37
2023-02-12T15:24:52.040Z,47.40
2023-02-12T15:51:57.002Z,52.03
2023-02-12T15:55:19.363Z,77.57
2023-02-12T15:57:59.013Z,63.13
2023-02-12T16:00:51.954Z,52.30
2023-02-12T16:03:33.653Z,56.87
2023-02-12T16:06:17.050Z,63.37
2023-02-12T16:09:00.862Z,55.53
2023-02-12T16:11:34.351Z,59.10
2023-02-12T16:14:25.807Z,53.27
2023-02-12T16:16:56.919Z,61.37
2023-02-12T16:19:30.671Z,60.73
2023-02-12T16:22:07.839Z,54.90
2023-02-12T16:24:42.204Z,61.47
2023-02-12T16:27:19.586Z,56.87
2023-02-12T16:29:51.113Z,69.17
2023-02-12T16:32:41.025Z,111.23
2023-02-12T16:35:17.674Z,59.93
2023-02-12T16:38:04.529Z,59.47
2023-02-12T16:40:36.557Z,61.30
2023-02-12T16:43:08.112Z,61.30
2023-02-12T16:45:42.098Z,81.20
2023-02-12T16:48:27.654Z,62.07
2023-02-12T16:50:58.917Z,62.60
2023-02-12T16:53:41.672Z,67.03
2023-02-12T16:56:13.339Z,63.87
2023-02-12T16:58:43.437Z,64.97
2023-02-12T17:01:15.036Z,63.57
2023-02-12T17:03:46.472Z,330.53
2023-02-12T17:06:16.047Z,69.40
2023-02-12T17:08:44.768Z,65.17
2023-02-12T17:11:15.345Z,67.97
2023-02-12T17:13:45.135Z,64.47
2023-02-12T17:16:25.087Z,65.23
2023-02-12T17:18:45.064Z,72.53
2023-02-12T17:21:28.669Z,93.23
2023-02-12T17:23:57.733Z,76.43
2023-02-12T17:26:26.985Z,70.93
2023-02-12T17:28:56.666Z,70.07
2023-02-12T17:31:25.431Z,74.90
2023-02-12T17:33:54.068Z,134.27
2023-02-12T17:36:23.340Z,304.00
2023-02-12T17:38:52.027Z,92.40
2023-02-12T17:41:21.044Z,82.03
2023-02-12T17:43:52.582Z,74.30
2023-02-12T17:46:26.686Z,75.67
2023-02-12T17:48:55.142Z,78.17
2023-02-12T17:51:24.106Z,78.70
2023-02-12T17:53:55.798Z,76.07
2023-02-12T17:56:28.385Z,73.53
2023-02-12T17:58:57.178Z,73.30
2023-02-12T18:01:26.322Z,74.50
2023-02-12T18:03:58.248Z,151.17
2023-02-12T18:06:32.477Z,108.77
2023-02-12T18:09:04.929Z,87.33
2023-02-12T18:11:33.746Z,180.23
2023-02-12T18:14:05.546Z,88.17
2023-02-12T18:16:36.669Z,94.63
2023-02-12T18:19:06.141Z,115.03
2023-02-12T18:21:39.319Z,81.70
2023-02-12T18:24:08.699Z,87.50
2023-02-12T18:29:21.118Z,111.17
2023-02-12T18:35:19.156Z,83.47
2023-02-12T18:37:53.158Z,85.90
2023-02-12T18:40:38.419Z,87.63
2023-02-12T18:43:18.592Z,93.70
2023-02-12T18:45:51.851Z,90.17
2023-02-12T18:48:20.817Z,85.87
2023-02-12T18:51:15.289Z,86.93
2023-02-12T18:55:36.670Z,87.23
2023-02-12T18:56:31.663Z,81.90
2023-02-12T18:59:03.415Z,88.37
2023-02-12T19:01:36.922Z,74.60
2023-02-12T19:04:10.141Z,89.80
2023-02-12T19:07:04.220Z,84.13
2023-02-12T19:09:32.999Z,68.70
2023-02-12T19:12:01.842Z,75.37
2023-02-12T19:14:30.951Z,80.43
2023-02-12T19:16:59.874Z,73.13
2023-02-12T19:19:29.518Z,71.00
2023-02-12T19:22:00.002Z,71.80
2023-02-12T19:24:44.462Z,74.47
2023-02-12T19:26:59.303Z,77.37
2023-02-12T19:29:28.371Z,76.93
2023-02-12T19:31:59.791Z,77.77
2023-02-12T19:34:37.371Z,86.80
2023-02-12T19:37:03.676Z,83.47
2023-02-12T19:42:22.656Z,84.63
2023-02-12T19:44:51.272Z,80.17
2023-02-12T19:47:21.608Z,85.30
2023-02-12T19:49:50.668Z,84.27
2023-02-12T19:52:21.258Z,77.40
2023-02-12T19:54:51.619Z,89.33
2023-02-12T19:57:22.157Z,88.57
2023-02-12T19:59:50.876Z,90.77
2023-02-12T20:02:22.273Z,90.33
2023-02-12T20:04:51.113Z,91.17
2023-02-12T20:07:19.813Z,94.17
2023-02-12T20:09:52.257Z,91.43
2023-02-12T20:12:20.943Z,83.63
2023-02-12T20:14:49.523Z,108.80
2023-02-12T20:17:18.628Z,166.00
2023-02-12T20:19:48.846Z,95.57
2023-02-12T20:22:17.416Z,92.00
2023-02-12T20:24:50.384Z,98.37
2023-02-12T20:27:25.276Z,95.70
2023-02-12T20:29:56.184Z,92.97
2023-02-12T20:35:18.640Z,100.23
2023-02-12T20:38:20.120Z,112.10
2023-02-12T20:40:49.024Z,103.10
2023-02-12T20:43:17.998Z,104.43
2023-02-12T20:45:51.211Z,107.33
2023-02-12T20:48:33.124Z,106.03
2023-02-12T20:51:13.493Z,112.97
2023-02-12T20:53:48.297Z,104.77
2023-02-12T20:56:29.640Z,101.67
2023-02-12T21:01:50.824Z,104.37
2023-02-12T21:04:24.683Z,107.93
2023-02-12T21:06:53.626Z,101.50
2023-02-12T21:09:22.391Z,103.57
2023-02-12T21:11:57.308Z,108.40
2023-02-12T21:14:29.386Z,105.80
2023-02-12T21:16:58.621Z,103.73
2023-02-12T21:19:30.280Z,102.80
2023-02-12T21:21:59.257Z,102.83
2023-02-12T21:24:28.085Z,104.97
2023-02-12T21:26:59.755Z,105.67
2023-02-12T21:29:30.050Z,109.30
2023-02-12T21:31:58.878Z,100.50
2023-02-12T21:34:27.793Z,101.23
2023-02-12T21:36:57.662Z,109.00
2023-02-12T21:39:28.925Z,103.07
2023-02-12T21:42:03.242Z,105.57
2023-02-12T21:44:35.699Z,106.40
2023-02-12T21:47:10.003Z,103.73
2023-02-12T21:49:39.659Z,105.83
2023-02-12T21:55:04.078Z,103.70
2023-02-12T21:57:53.353Z,161.13
2023-02-12T22:00:35.074Z,93.47
2023-02-12T22:03:06.279Z,100.20
2023-02-12T22:05:35.651Z,103.87
2023-02-12T22:08:04.734Z,106.27
2023-02-12T22:10:33.260Z,98.87
2023-02-12T22:13:03.699Z,93.67
2023-02-12T22:15:32.514Z,108.03
2023-02-12T22:18:01.288Z,103.17
2023-02-12T22:20:30.445Z,99.77
2023-02-12T22:22:59.758Z,101.70
2023-02-12T22:25:28.466Z,100.80
2023-02-12T22:27:57.239Z,106.70
2023-02-12T22:30:26.019Z,98.67
2023-02-12T22:32:56.173Z,102.23
2023-02-12T22:35:24.851Z,98.97
2023-02-12T22:37:53.464Z,101.13
2023-02-12T22:40:22.159Z,100.87
2023-02-12T22:42:50.699Z,98.07
2023-02-12T22:45:19.652Z,99.33
2023-02-12T22:47:48.284Z,100.83
2023-02-12T22:50:16.963Z,107.83
2023-02-12T22:52:45.763Z,107.93
2023-02-12T22:55:14.476Z,98.50
2023-02-12T22:57:43.214Z,111.47
2023-02-12T23:00:12.233Z,104.03
2023-02-12T23:02:41.050Z,105.57
2023-02-12T23:05:09.769Z,109.83
2023-02-12T23:07:38.393Z,105.50
2023-02-12T23:10:07.815Z,104.83
2023-02-12T23:12:36.410Z,109.27
2023-02-12T23:15:05.327Z,106.80
2023-02-12T23:17:34.689Z,109.83
2023-02-12T23:20:03.355Z,106.07
2023-02-12T23:22:31.986Z,111.03
2023-02-12T23:25:05.289Z,101.57
2023-02-12T23:27:34.021Z,107.93
2023-02-12T23:30:02.746Z,108.17
2023-02-12T23:32:32.940Z,112.17
2023-02-12T23:35:01.613Z,105.17
2023-02-12T23:37:30.315Z,116.33
2023-02-12T23:39:58.939Z,109.87
2023-02-12T23:42:27.652Z,110.63
2023-02-12T23:44:57.632Z,100.43
2023-02-12T23:47:26.549Z,104.50
2023-02-12T23:49:55.133Z,109.43
2023-02-12T23:52:23.683Z,102.00
2023-02-12T23:54:52.326Z,103.47
2023-02-12T23:57:20.994Z,105.53
2023-02-12T23:59:49.718Z,102.53
